Time;durP1;ratioP1;P1;durP2;ratioP2;P2;SDS_P1;SDS_P2;PMS_P1;PMS_P2;Temp;Humidity;BMP_temperature;BMP_pressure;BME280_temperature;BME280_humidity;BME280_pressure;Samples;Min_cycle;Max_cycle;Signal;HPM_P1;HPM_P2
2020/12/22 00:01:46;;;;;;;;;;;8.60;99.90;;;;;;5075478;28;19916;-85
2020/12/22 00:04:11;;;;;;;;;;;8.70;99.90;;;;;;5075313;28;19915;-85
2020/12/22 00:06:37;;;;;;;;;;;8.70;99.90;;;;;;5075190;28;19909;-85
2020/12/22 00:09:02;;;;;;;;;;;8.80;99.90;;;;;;5067393;28;19913;-85
2020/12/22 00:11:27;;;;;;;;;;;8.80;99.90;;;;;;5073471;28;19995;-85
2020/12/22 00:13:53;;;;;;;;;;;8.80;99.90;;;;;;5074978;28;19965;-85
2020/12/22 00:16:18;;;;;;;;;;;8.80;99.90;;;;;;5074603;28;20310;-85
2020/12/22 00:18:44;;;;;;;;;;;8.90;99.90;;;;;;5074937;28;19912;-84
2020/12/22 00:21:09;;;;;;;;;;;8.90;99.90;;;;;;5074844;28;19915;-85
2020/12/22 00:23:35;;;;;;;;;;;8.90;99.90;;;;;;5074722;28;19915;-85
2020/12/22 00:26:00;;;;;;;;;;;8.90;99.90;;;;;;5075938;28;19915;-85
2020/12/22 00:28:26;;;;;;;;;;;8.90;99.90;;;;;;5074618;28;20003;-85
2020/12/22 00:30:51;;;;;;;;;;;8.90;99.90;;;;;;5074692;28;19908;-85
2020/12/22 00:33:17;;;;;;;;;;;9.00;99.90;;;;;;5074949;28;19913;-85
2020/12/22 00:35:43;;;;;;;;;;;9.00;99.90;;;;;;5073558;28;19908;-85
2020/12/22 00:38:08;;;;;;;;;;;9.00;99.90;;;;;;5066075;28;19908;-85
2020/12/22 00:40:34;;;;;;;;;;;9.00;99.90;;;;;;5074389;28;19962;-85
2020/12/22 00:43:01;;;;;;;;;;;9.10;99.90;;;;;;5075467;28;19915;-85
2020/12/22 00:45:26;;;;;;;;;;;9.10;99.90;;;;;;5073817;28;20019;-85
2020/12/22 00:47:52;;;;;;;;;;;9.20;99.90;;;;;;5075033;28;20396;-85
2020/12/22 00:50:17;;;;;;;;;;;9.20;99.90;;;;;;5073962;28;19912;-85
2020/12/22 00:52:42;;;;;;;;;;;9.20;99.90;;;;;;5073947;28;20386;-85
2020/12/22 00:55:08;;;;;;;;;;;9.20;99.90;;;;;;5073724;28;20049;-85
2020/12/22 00:57:34;;;;;;;;;;;9.30;99.90;;;;;;5074763;28;19915;-85
2020/12/22 00:59:59;;;;;;;;;;;9.30;99.90;;;;;;5073440;28;19916;-85
2020/12/22 01:02:25;;;;;;;;;;;9.30;99.90;;;;;;5073747;28;19908;-85
2020/12/22 01:04:50;;;;;;;;;;;9.30;99.90;;;;;;5073652;28;19908;-84
2020/12/22 01:07:16;;;;;;;;;;;9.40;99.90;;;;;;5064989;28;19909;-85
2020/12/22 01:09:42;;;;;;;;;;;9.40;99.90;;;;;;5074795;28;20008;-85
2020/12/22 01:12:07;;;;;;;;;;;9.40;99.90;;;;;;5072844;28;19916;-85
2020/12/22 01:14:33;;;;;;;;;;;9.50;99.90;;;;;;5074513;28;20279;-85
2020/12/22 01:16:58;;;;;;;;;;;9.50;99.90;;;;;;5073257;28;19958;-85
2020/12/22 01:19:24;;;;;;;;;;;9.50;99.90;;;;;;5073260;28;19916;-85
2020/12/22 01:21:53;;;;;;;;;;;9.50;99.90;;;;;;5073472;28;19916;-85
2020/12/22 01:24:18;;;;;;;;;;;9.60;99.90;;;;;;5074632;28;19913;-84
2020/12/22 01:26:44;;;;;;;;;;;9.60;99.90;;;;;;5073008;28;19909;-85
2020/12/22 01:29:09;;;;;;;;;;;9.70;99.90;;;;;;5074224;28;20413;-84
2020/12/22 01:31:35;;;;;;;;;;;9.60;99.90;;;;;;5073183;28;19916;-85
2020/12/22 01:34:00;;;;;;;;;;;9.60;99.90;;;;;;5073180;28;19908;-85
2020/12/22 01:36:26;;;;;;;;;;;9.60;99.90;;;;;;5070814;28;20356;-85
2020/12/22 01:38:52;;;;;;;;;;;9.60;99.90;;;;;;5066448;28;20283;-85
2020/12/22 01:41:17;;;;;;;;;;;9.60;99.90;;;;;;5072959;28;19908;-85
2020/12/22 01:43:59;;;;;;;;;;;9.60;99.90;;;;;;5072770;28;19985;-85
2020/12/22 01:46:28;;;;;;;;;;;9.60;99.90;;;;;;5072742;28;19918;-85
2020/12/22 01:48:54;;;;;;;;;;;9.60;99.90;;;;;;5072739;28;19912;-85
2020/12/22 01:51:19;;;;;;;;;;;9.60;99.90;;;;;;5072698;28;20003;-85
2020/12/22 01:53:45;;;;;;;;;;;9.60;99.90;;;;;;5072715;28;19955;-85
2020/12/22 01:56:10;;;;;;;;;;;9.60;99.90;;;;;;5072242;28;19908;-85
2020/12/22 01:58:36;;;;;;;;;;;9.70;99.90;;;;;;5072476;28;19962;-85
2020/12/22 02:01:01;;;;;;;;;;;9.80;99.90;;;;;;5072337;28;20282;-85
2020/12/22 02:03:27;;;;;;;;;;;9.80;99.90;;;;;;5072546;28;19908;-85
2020/12/22 02:05:52;;;;;;;;;;;9.80;99.90;;;;;;5071983;28;20032;-85
2020/12/22 02:08:18;;;;;;;;;;;9.90;99.90;;;;;;5063773;28;19999;-85
2020/12/22 02:10:50;;;;;;;;;;;9.90;99.90;;;;;;5072205;28;19916;-85
2020/12/22 02:13:16;;;;;;;;;;;9.90;99.90;;;;;;5072196;28;19909;-85
2020/12/22 02:15:41;;;;;;;;;;;9.90;99.90;;;;;;5072055;28;19915;-85
2020/12/22 02:18:06;;;;;;;;;;;9.90;99.90;;;;;;5072229;28;19909;-85
2020/12/22 02:20:32;;;;;;;;;;;9.90;99.90;;;;;;5072216;28;19908;-85
2020/12/22 02:22:57;;;;;;;;;;;9.90;99.90;;;;;;5071158;28;19913;-85
2020/12/22 02:25:23;;;;;;;;;;;9.90;99.90;;;;;;5071800;28;19912;-85
2020/12/22 02:27:48;;;;;;;;;;;10.00;99.90;;;;;;5071479;28;20260;-85
2020/12/22 02:30:14;;;;;;;;;;;10.00;99.90;;;;;;5072113;28;19909;-84
2020/12/22 02:32:39;;;;;;;;;;;10.00;99.90;;;;;;5071767;28;19909;-85
2020/12/22 02:35:05;;;;;;;;;;;10.10;99.90;;;;;;5071858;28;19915;-85
2020/12/22 02:37:30;;;;;;;;;;;10.10;99.90;;;;;;5063050;28;20291;-85
2020/12/22 02:39:56;;;;;;;;;;;10.10;99.90;;;;;;5072708;28;19909;-84
2020/12/22 02:42:22;;;;;;;;;;;10.10;99.90;;;;;;5072921;28;19915;-84
2020/12/22 02:44:47;;;;;;;;;;;10.10;99.90;;;;;;5071648;28;19923;-84
2020/12/22 02:47:14;;;;;;;;;;;10.10;99.90;;;;;;5071463;28;20295;-84
2020/12/22 02:49:40;;;;;;;;;;;10.20;99.90;;;;;;5071441;28;20013;-85
2020/12/22 02:52:06;;;;;;;;;;;10.20;99.90;;;;;;5071428;28;19915;-85
2020/12/22 02:54:32;;;;;;;;;;;10.20;99.90;;;;;;5072646;28;19908;-85
2020/12/22 02:56:57;;;;;;;;;;;10.20;99.90;;;;;;5071265;28;20007;-84
2020/12/22 02:59:23;;;;;;;;;;;10.30;99.90;;;;;;5070708;28;19909;-84
2020/12/22 03:01:48;;;;;;;;;;;10.20;99.90;;;;;;5071342;28;19909;-84
2020/12/22 03:04:13;;;;;;;;;;;10.30;99.90;;;;;;5071397;28;19909;-84
2020/12/22 03:06:39;;;;;;;;;;;10.30;99.90;;;;;;5067345;28;20287;-85
2020/12/22 03:09:06;;;;;;;;;;;10.20;99.90;;;;;;5066346;28;19913;-85
2020/12/22 03:11:31;;;;;;;;;;;10.30;99.90;;;;;;5071174;28;19916;-84
2020/12/22 03:13:57;;;;;;;;;;;10.30;99.90;;;;;;5071455;28;19909;-84
2020/12/22 03:16:22;;;;;;;;;;;10.30;99.90;;;;;;5071009;28;19913;-84
2020/12/22 03:18:48;;;;;;;;;;;10.30;99.90;;;;;;5071159;28;20294;-85
2020/12/22 03:21:15;;;;;;;;;;;10.30;99.90;;;;;;5072474;28;19912;-84
2020/12/22 03:23:41;;;;;;;;;;;10.30;99.90;;;;;;5071124;28;19909;-84
2020/12/22 03:26:06;;;;;;;;;;;10.30;99.90;;;;;;5070746;28;19915;-84
2020/12/22 03:28:32;;;;;;;;;;;10.30;99.90;;;;;;5071038;28;20520;-84
2020/12/22 03:30:57;;;;;;;;;;;10.30;99.90;;;;;;5071054;28;19966;-84
2020/12/22 03:33:23;;;;;;;;;;;10.30;99.90;;;;;;5071453;28;19958;-84
2020/12/22 03:35:48;;;;;;;;;;;10.30;99.90;;;;;;5074888;28;20290;-84
2020/12/22 03:38:14;;;;;;;;;;;10.30;99.90;;;;;;5066685;28;19943;-84
2020/12/22 03:40:39;;;;;;;;;;;10.30;99.90;;;;;;5076308;28;19956;-84
2020/12/22 03:43:05;;;;;;;;;;;10.30;99.90;;;;;;5075046;28;20455;-85
2020/12/22 03:45:30;;;;;;;;;;;10.30;99.90;;;;;;5075118;28;19917;-84
2020/12/22 03:47:55;;;;;;;;;;;10.30;99.90;;;;;;5076146;28;19909;-84
2020/12/22 03:50:21;;;;;;;;;;;10.30;99.90;;;;;;5074874;28;19909;-84
2020/12/22 03:52:46;;;;;;;;;;;10.30;99.90;;;;;;5074933;28;20303;-84
2020/12/22 03:55:12;;;;;;;;;;;10.30;99.90;;;;;;5074712;28;20382;-84
2020/12/22 03:57:38;;;;;;;;;;;10.40;99.90;;;;;;5075993;28;19919;-85
2020/12/22 04:00:04;;;;;;;;;;;10.30;99.90;;;;;;5075891;28;19915;-84
2020/12/22 04:02:30;;;;;;;;;;;10.30;99.90;;;;;;5074851;28;19912;-84
2020/12/22 04:04:55;;;;;;;;;;;10.30;99.90;;;;;;5075885;28;20276;-84
2020/12/22 04:07:21;;;;;;;;;;;10.30;99.90;;;;;;5065782;28;20003;-85
2020/12/22 04:09:47;;;;;;;;;;;10.30;99.90;;;;;;5075618;28;19913;-85
2020/12/22 04:12:12;;;;;;;;;;;10.30;99.90;;;;;;5074505;28;19925;-85
2020/12/22 04:14:37;;;;;;;;;;;10.30;99.90;;;;;;5074515;28;20397;-84
2020/12/22 04:17:03;;;;;;;;;;;10.30;99.90;;;;;;5074129;28;19908;-85
2020/12/22 04:19:29;;;;;;;;;;;10.30;99.90;;;;;;5074349;28;19960;-85
2020/12/22 04:21:55;;;;;;;;;;;10.30;99.90;;;;;;5074254;28;20286;-84
2020/12/22 04:24:20;;;;;;;;;;;10.40;99.90;;;;;;5074326;28;20010;-84
2020/12/22 04:26:46;;;;;;;;;;;10.40;99.90;;;;;;5074028;28;19909;-84
2020/12/22 04:29:11;;;;;;;;;;;10.40;99.90;;;;;;5074177;28;19923;-84
2020/12/22 04:31:36;;;;;;;;;;;10.40;99.90;;;;;;5073996;28;20019;-85
2020/12/22 04:34:02;;;;;;;;;;;10.40;99.90;;;;;;5075302;28;19915;-84
2020/12/22 04:36:28;;;;;;;;;;;10.50;99.90;;;;;;5071692;28;19955;-85
2020/12/22 04:38:54;;;;;;;;;;;10.50;99.90;;;;;;5067564;28;19908;-85
2020/12/22 04:41:20;;;;;;;;;;;10.50;99.90;;;;;;5073874;28;20283;-85
2020/12/22 04:43:46;;;;;;;;;;;10.50;99.90;;;;;;5075107;28;20017;-85
2020/12/22 04:46:15;;;;;;;;;;;10.60;99.90;;;;;;5072593;28;19915;-84
2020/12/22 04:48:41;;;;;;;;;;;10.60;99.90;;;;;;5073806;28;19962;-84
2020/12/22 04:51:07;;;;;;;;;;;10.50;99.90;;;;;;5073664;28;20364;-85
2020/12/22 04:53:32;;;;;;;;;;;10.60;99.90;;;;;;5073760;28;19960;-84
2020/12/22 04:55:59;;;;;;;;;;;10.60;99.90;;;;;;5073606;28;20571;-84
2020/12/22 04:58:27;;;;;;;;;;;10.60;99.90;;;;;;5073571;28;19961;-84
2020/12/22 05:00:52;;;;;;;;;;;10.60;99.90;;;;;;5073516;28;19909;-84
2020/12/22 05:03:20;;;;;;;;;;;10.60;99.90;;;;;;5074766;28;19920;-84
2020/12/22 05:05:46;;;;;;;;;;;10.60;99.90;;;;;;5073237;28;19916;-84
2020/12/22 05:08:11;;;;;;;;;;;10.60;99.90;;;;;;5066069;28;19916;-85
2020/12/22 05:10:40;;;;;;;;;;;10.50;99.90;;;;;;5073351;28;20016;-85
2020/12/22 05:13:05;;;;;;;;;;;10.50;99.90;;;;;;5074786;28;19916;-85
2020/12/22 05:15:31;;;;;;;;;;;10.50;99.90;;;;;;5073536;28;19909;-84
2020/12/22 05:17:58;;;;;;;;;;;10.50;99.90;;;;;;5073248;28;19912;-85
2020/12/22 05:20:24;;;;;;;;;;;10.50;99.90;;;;;;5073132;28;19947;-85
2020/12/22 05:22:49;;;;;;;;;;;10.50;99.90;;;;;;5074421;28;19978;-85
2020/12/22 05:25:19;;;;;;;;;;;10.50;99.90;;;;;;5073182;28;19909;-84
2020/12/22 05:27:47;;;;;;;;;;;10.50;99.90;;;;;;5072973;28;20007;-84
2020/12/22 05:30:15;;;;;;;;;;;10.50;99.90;;;;;;5072933;28;19916;-84
2020/12/22 05:32:42;;;;;;;;;;;10.50;99.90;;;;;;5072951;28;19908;-85
2020/12/22 05:35:07;;;;;;;;;;;10.50;99.90;;;;;;5074220;28;19924;-85
2020/12/22 05:37:38;;;;;;;;;;;10.50;99.90;;;;;;5064058;28;19917;-84
2020/12/22 05:40:07;;;;;;;;;;;10.50;99.90;;;;;;5074151;28;19909;-84
2020/12/22 05:42:32;;;;;;;;;;;10.60;99.90;;;;;;5072858;28;19920;-85
2020/12/22 05:44:57;;;;;;;;;;;10.60;99.90;;;;;;5072686;28;19920;-85
2020/12/22 05:47:24;;;;;;;;;;;10.60;99.90;;;;;;5071862;28;20290;-84
2020/12/22 05:49:54;;;;;;;;;;;10.70;99.90;;;;;;5072390;28;20023;-84
2020/12/22 05:52:21;;;;;;;;;;;10.70;99.90;;;;;;5073877;28;19919;-85
2020/12/22 05:54:48;;;;;;;;;;;10.70;99.90;;;;;;5072649;28;19955;-84
2020/12/22 05:57:18;;;;;;;;;;;10.70;99.90;;;;;;5073402;28;20192;-84
2020/12/22 05:59:43;;;;;;;;;;;10.70;99.90;;;;;;5072393;28;19909;-84
2020/12/22 06:02:09;;;;;;;;;;;10.70;99.90;;;;;;5072355;28;19909;-84
2020/12/22 06:04:35;;;;;;;;;;;10.70;99.90;;;;;;5072337;28;19913;-85
2020/12/22 06:07:01;;;;;;;;;;;10.70;99.90;;;;;;5066725;28;19913;-85
2020/12/22 06:09:27;;;;;;;;;;;10.70;99.90;;;;;;5071835;28;19918;-85
2020/12/22 06:11:58;;;;;;;;;;;10.70;99.90;;;;;;5073529;28;20003;-85
2020/12/22 06:14:24;;;;;;;;;;;10.70;99.90;;;;;;5072559;28;19909;-84
2020/12/22 06:16:50;;;;;;;;;;;10.80;99.90;;;;;;5071854;28;19966;-85
2020/12/22 06:19:15;;;;;;;;;;;10.80;99.90;;;;;;5071982;28;19909;-84
2020/12/22 06:21:41;;;;;;;;;;;10.80;99.90;;;;;;5072163;28;20362;-85
2020/12/22 06:24:06;;;;;;;;;;;10.80;99.90;;;;;;5071987;28;19983;-85
2020/12/22 06:26:32;;;;;;;;;;;10.90;99.90;;;;;;5071663;28;19909;-85
2020/12/22 06:28:57;;;;;;;;;;;10.90;99.90;;;;;;5071799;28;19920;-85
2020/12/22 06:31:24;;;;;;;;;;;10.90;99.90;;;;;;5073005;28;19955;-84
2020/12/22 06:33:50;;;;;;;;;;;10.90;99.90;;;;;;5072267;28;19912;-84
2020/12/22 06:36:17;;;;;;;;;;;10.90;99.90;;;;;;5071046;28;20407;-85
2020/12/22 06:38:53;;;;;;;;;;;10.90;99.90;;;;;;5064088;28;19915;-84
2020/12/22 06:41:39;;;;;;;;;;;10.90;99.90;;;;;;5071611;28;19912;-85
2020/12/22 06:44:25;;;;;;;;;;;11.00;99.90;;;;;;5071453;28;19969;-84
2020/12/22 06:46:51;;;;;;;;;;;11.00;99.90;;;;;;5072736;28;20317;-84
2020/12/22 06:49:17;;;;;;;;;;;11.00;99.90;;;;;;5071441;28;20019;-84
2020/12/22 06:51:43;;;;;;;;;;;11.00;99.90;;;;;;5071530;28;20050;-85
2020/12/22 06:54:14;;;;;;;;;;;11.00;99.90;;;;;;5072825;28;20286;-84
2020/12/22 06:56:40;;;;;;;;;;;11.10;99.90;;;;;;5071570;28;19912;-85
2020/12/22 06:59:06;;;;;;;;;;;11.10;99.90;;;;;;5071664;28;19999;-85
2020/12/22 07:01:33;;;;;;;;;;;11.10;99.90;;;;;;5071352;28;19909;-85
2020/12/22 07:04:11;;;;;;;;;;;11.20;99.90;;;;;;5071496;28;19991;-85
2020/12/22 07:06:43;;;;;;;;;;;11.20;99.90;;;;;;5067798;28;19909;-85
2020/12/22 07:09:28;;;;;;;;;;;11.30;99.90;;;;;;5066829;28;19913;-85
2020/12/22 07:12:09;;;;;;;;;;;11.30;99.90;;;;;;5071518;28;19908;-85
2020/12/22 07:14:39;;;;;;;;;;;11.30;99.90;;;;;;5070704;28;19912;-85
2020/12/22 07:17:05;;;;;;;;;;;11.40;99.90;;;;;;5063938;28;19909;-85
2020/12/22 07:19:32;;;;;;;;;;;11.40;99.90;;;;;;5069338;28;19909;-84
2020/12/22 07:22:02;;;;;;;;;;;11.40;99.90;;;;;;5066159;28;19909;-85
2020/12/22 07:24:28;;;;;;;;;;;11.50;99.90;;;;;;5069703;28;19912;-85
2020/12/22 07:26:54;;;;;;;;;;;11.50;99.90;;;;;;5071356;28;19908;-85
2020/12/22 07:29:20;;;;;;;;;;;11.50;99.90;;;;;;5071187;28;20278;-85
2020/12/22 07:31:46;;;;;;;;;;;11.60;99.90;;;;;;5070733;28;19916;-84
2020/12/22 07:34:12;;;;;;;;;;;11.60;99.90;;;;;;5062866;28;19959;-85
2020/12/22 07:36:37;;;;;;;;;;;11.60;99.90;;;;;;5071753;28;20002;-85
2020/12/22 07:39:17;;;;;;;;;;;11.60;99.90;;;;;;5064193;28;20028;-84
2020/12/22 07:41:43;;;;;;;;;;;11.60;99.90;;;;;;5064348;28;19915;-85
2020/12/22 07:44:13;;;;;;;;;;;11.60;99.90;;;;;;5071534;28;19921;-85
2020/12/22 07:46:39;;;;;;;;;;;11.60;99.90;;;;;;5071253;28;19912;-85
2020/12/22 07:49:05;;;;;;;;;;;11.60;99.90;;;;;;5072894;28;19999;-85
2020/12/22 07:51:31;;;;;;;;;;;11.60;99.90;;;;;;5071280;28;20416;-84
2020/12/22 07:54:04;;;;;;;;;;;11.70;99.90;;;;;;5070918;28;19908;-84
2020/12/22 07:56:30;;;;;;;;;;;11.70;99.90;;;;;;5070644;28;19912;-84
2020/12/22 07:58:56;;;;;;;;;;;11.70;99.90;;;;;;5070795;28;20316;-84
2020/12/22 08:01:22;;;;;;;;;;;11.70;99.90;;;;;;5072255;28;19908;-84
2020/12/22 08:03:48;;;;;;;;;;;11.70;99.90;;;;;;5070591;28;19912;-85
2020/12/22 08:06:13;;;;;;;;;;;11.70;99.90;;;;;;5070710;28;19909;-84
2020/12/22 08:08:39;;;;;;;;;;;11.70;99.90;;;;;;5070788;28;19936;-82
2020/12/22 08:11:04;;;;;;;;;;;11.70;99.90;;;;;;5063587;28;20398;-84
2020/12/22 08:13:31;;;;;;;;;;;11.80;99.90;;;;;;5069646;28;19991;-84
2020/12/22 08:15:57;;;;;;;;;;;11.70;99.90;;;;;;5070955;28;20315;-84
2020/12/22 08:18:23;;;;;;;;;;;11.70;99.90;;;;;;5070705;28;19908;-85
2020/12/22 08:20:49;;;;;;;;;;;11.80;99.90;;;;;;5071670;28;19908;-84
2020/12/22 08:23:15;;;;;;;;;;;11.80;99.90;;;;;;5074366;28;19908;-84
2020/12/22 08:25:42;;;;;;;;;;;11.80;99.90;;;;;;5074222;28;20279;-85
2020/12/22 08:28:07;;;;;;;;;;;11.80;99.90;;;;;;5074289;28;20278;-85
2020/12/22 08:30:33;;;;;;;;;;;11.90;99.90;;;;;;5074179;28;19908;-85
2020/12/22 08:32:58;;;;;;;;;;;11.90;99.90;;;;;;5074159;28;19917;-85
2020/12/22 08:35:24;;;;;;;;;;;11.90;99.90;;;;;;5074082;28;20008;-85
2020/12/22 08:37:50;;;;;;;;;;;11.90;99.90;;;;;;5073796;28;20390;-85
2020/12/22 08:40:32;;;;;;;;;;;11.90;99.90;;;;;;5073555;28;19909;-85
2020/12/22 08:42:58;;;;;;;;;;;12.00;99.90;;;;;;5069605;28;20050;-86
2020/12/22 08:45:26;;;;;;;;;;;12.00;99.90;;;;;;5074232;28;20409;-85
2020/12/22 08:47:55;;;;;;;;;;;12.00;99.90;;;;;;5073559;28;19909;-86
2020/12/22 08:50:21;;;;;;;;;;;12.00;99.90;;;;;;5073731;28;19912;-85
2020/12/22 08:52:46;;;;;;;;;;;12.00;99.90;;;;;;5070537;28;20067;-86
2020/12/22 08:55:12;;;;;;;;;;;12.00;99.90;;;;;;5055175;28;19913;-85
2020/12/22 08:57:38;;;;;;;;;;;12.00;99.90;;;;;;5053593;28;20407;-86
2020/12/22 09:00:13;;;;;;;;;;;12.00;99.90;;;;;;5053722;28;19909;-85
2020/12/22 09:02:41;;;;;;;;;;;12.00;99.90;;;;;;5053496;28;20442;-86
2020/12/22 09:05:10;;;;;;;;;;;12.00;99.90;;;;;;5053566;28;19970;-85
2020/12/22 09:07:36;;;;;;;;;;;12.00;99.90;;;;;;5053302;28;19999;-86
2020/12/22 09:10:05;;;;;;;;;;;12.00;99.90;;;;;;5059871;28;20007;-86
2020/12/22 09:12:30;;;;;;;;;;;12.00;99.90;;;;;;5062826;28;19916;-86
2020/12/22 09:14:58;;;;;;;;;;;12.00;99.90;;;;;;5053414;28;19909;-86
2020/12/22 09:17:30;;;;;;;;;;;12.00;99.90;;;;;;5053186;28;20004;-86
2020/12/22 09:19:56;;;;;;;;;;;11.90;99.90;;;;;;5053171;28;19908;-86
2020/12/22 09:22:23;;;;;;;;;;;11.90;99.90;;;;;;5053375;28;19920;-86
2020/12/22 09:24:51;;;;;;;;;;;11.90;99.90;;;;;;5053425;28;20109;-86
2020/12/22 09:27:26;;;;;;;;;;;11.80;99.90;;;;;;5052933;28;20055;-87
2020/12/22 09:29:51;;;;;;;;;;;11.70;99.90;;;;;;5053228;28;20348;-86
2020/12/22 09:32:17;;;;;;;;;;;11.70;99.90;;;;;;5052869;28;20003;-87
2020/12/22 09:34:42;;;;;;;;;;;11.60;99.90;;;;;;5052958;28;19913;-86
2020/12/22 09:37:08;;;;;;;;;;;11.60;99.90;;;;;;5052813;28;19959;-86
2020/12/22 09:39:35;;;;;;;;;;;11.50;99.90;;;;;;5062689;28;20007;-86
2020/12/22 09:42:01;;;;;;;;;;;11.50;99.90;;;;;;5066117;28;19967;-86
2020/12/22 09:44:27;;;;;;;;;;;11.50;99.90;;;;;;5054444;28;19917;-86
2020/12/22 09:46:53;;;;;;;;;;;11.50;99.90;;;;;;5053908;28;20318;-86
2020/12/22 09:49:19;;;;;;;;;;;11.50;99.90;;;;;;5053993;28;19917;-86
2020/12/22 09:51:45;;;;;;;;;;;11.60;99.90;;;;;;5052744;28;19916;-87
2020/12/22 09:54:10;;;;;;;;;;;11.60;99.90;;;;;;5052645;28;19908;-87
2020/12/22 09:56:36;;;;;;;;;;;11.70;99.90;;;;;;5052421;28;20343;-86
2020/12/22 09:59:02;;;;;;;;;;;11.70;99.90;;;;;;5052730;28;19912;-87
2020/12/22 10:01:27;;;;;;;;;;;11.80;99.90;;;;;;5052464;28;19916;-87
2020/12/22 10:03:53;;;;;;;;;;;11.90;99.90;;;;;;5052554;28;20003;-87
2020/12/22 10:06:19;;;;;;;;;;;11.90;99.90;;;;;;5065280;28;19916;-87
2020/12/22 10:08:45;;;;;;;;;;;11.90;99.90;;;;;;5072206;28;19916;-87
2020/12/22 10:11:11;;;;;;;;;;;12.00;99.90;;;;;;5073474;28;19909;-87
2020/12/22 10:13:37;;;;;;;;;;;12.10;99.90;;;;;;5051891;28;20184;-87
2020/12/22 10:16:09;;;;;;;;;;;12.30;99.90;;;;;;5051427;28;19920;-87
2020/12/22 10:18:35;;;;;;;;;;;12.50;99.90;;;;;;5051548;28;19908;-87
2020/12/22 10:21:03;;;;;;;;;;;12.60;99.90;;;;;;5051953;28;19930;-87
2020/12/22 10:23:29;;;;;;;;;;;12.70;99.90;;;;;;5053578;28;20284;-87
2020/12/22 10:25:54;;;;;;;;;;;12.70;99.90;;;;;;5051966;28;19909;-87
2020/12/22 10:28:20;;;;;;;;;;;12.70;99.90;;;;;;5052031;28;19930;-87
2020/12/22 10:30:45;;;;;;;;;;;12.70;99.90;;;;;;5051806;28;20287;-87
2020/12/22 10:33:10;;;;;;;;;;;12.80;99.90;;;;;;5051979;28;19950;-87
2020/12/22 10:35:36;;;;;;;;;;;12.80;99.90;;;;;;5052067;28;19909;-87
2020/12/22 10:38:01;;;;;;;;;;;12.80;99.90;;;;;;5051797;28;20601;-86
2020/12/22 10:40:27;;;;;;;;;;;12.90;99.90;;;;;;5061788;28;19958;-87
2020/12/22 10:42:52;;;;;;;;;;;12.90;99.90;;;;;;5057511;28;19915;-86
2020/12/22 10:45:18;;;;;;;;;;;12.90;99.90;;;;;;5051326;28;20378;-86
2020/12/22 10:47:43;;;;;;;;;;;12.90;99.90;;;;;;5051719;28;19948;-86
2020/12/22 10:50:09;;;;;;;;;;;12.90;99.90;;;;;;5051645;28;19912;-86
2020/12/22 10:52:34;;;;;;;;;;;12.90;99.90;;;;;;5051741;28;20019;-86
2020/12/22 10:55:00;;;;;;;;;;;12.80;99.90;;;;;;5051679;28;19916;-86
2020/12/22 10:57:25;;;;;;;;;;;12.80;99.90;;;;;;5051408;28;19909;-87
2020/12/22 10:59:51;;;;;;;;;;;12.90;99.90;;;;;;5051705;28;19932;-86
2020/12/22 11:02:16;;;;;;;;;;;12.90;99.90;;;;;;5051365;28;19913;-87
2020/12/22 11:04:42;;;;;;;;;;;12.90;99.90;;;;;;5051475;28;19916;-86
2020/12/22 11:07:19;;;;;;;;;;;12.90;99.90;;;;;;5051311;28;19917;-87
2020/12/22 11:09:45;;;;;;;;;;;12.90;99.90;;;;;;5051178;28;20290;-86
2020/12/22 11:12:10;;;;;;;;;;;12.80;99.90;;;;;;5067529;28;20389;-87
2020/12/22 11:14:36;;;;;;;;;;;12.90;99.90;;;;;;5071259;28;20007;-86
2020/12/22 11:17:02;;;;;;;;;;;12.80;99.90;;;;;;5072344;28;19932;-86
2020/12/22 11:19:28;;;;;;;;;;;12.80;99.90;;;;;;5072453;28;19944;-86
2020/12/22 11:21:53;;;;;;;;;;;12.80;99.90;;;;;;5071118;28;19954;-87
2020/12/22 11:24:19;;;;;;;;;;;12.70;99.90;;;;;;5071289;28;19908;-86
2020/12/22 11:26:44;;;;;;;;;;;12.70;99.90;;;;;;5071062;28;19939;-86
2020/12/22 11:29:10;;;;;;;;;;;12.70;99.90;;;;;;5070852;28;20283;-87
2020/12/22 11:31:35;;;;;;;;;;;12.70;99.90;;;;;;5071271;28;19909;-86
2020/12/22 11:34:01;;;;;;;;;;;12.70;99.90;;;;;;5071222;28;19915;-86
2020/12/22 11:36:26;;;;;;;;;;;12.70;99.90;;;;;;5070874;28;20355;-87
2020/12/22 11:38:51;;;;;;;;;;;12.70;99.90;;;;;;5072321;28;19947;-87
2020/12/22 11:41:20;;;;;;;;;;;12.70;99.90;;;;;;5070422;28;19961;-86
2020/12/22 11:43:46;;;;;;;;;;;12.70;99.90;;;;;;5050940;28;19938;-86
2020/12/22 11:46:12;;;;;;;;;;;12.70;99.90;;;;;;5050836;28;20015;-87
2020/12/22 11:48:37;;;;;;;;;;;12.80;99.90;;;;;;5050925;28;19912;-87
2020/12/22 11:51:04;;;;;;;;;;;12.80;99.90;;;;;;5050807;28;20348;-87
2020/12/22 11:53:29;;;;;;;;;;;12.80;99.90;;;;;;5051017;28;19913;-87
2020/12/22 11:55:54;;;;;;;;;;;12.80;99.90;;;;;;5053515;28;19909;-86
2020/12/22 11:58:20;;;;;;;;;;;12.80;99.90;;;;;;5054972;28;19920;-87
2020/12/22 12:00:45;;;;;;;;;;;12.80;99.90;;;;;;5054901;28;19909;-86
2020/12/22 12:03:11;;;;;;;;;;;12.80;99.90;;;;;;5054967;28;19916;-87
2020/12/22 12:05:36;;;;;;;;;;;12.80;99.90;;;;;;5055948;28;19939;-87
2020/12/22 12:08:02;;;;;;;;;;;12.90;99.90;;;;;;5055760;28;20399;-87
2020/12/22 12:10:28;;;;;;;;;;;12.90;99.90;;;;;;5064686;28;20041;-86
2020/12/22 12:12:53;;;;;;;;;;;12.90;99.90;;;;;;5069520;28;19908;-86
2020/12/22 12:15:18;;;;;;;;;;;13.00;99.90;;;;;;5071844;28;19908;-86
2020/12/22 12:17:44;;;;;;;;;;;12.90;99.90;;;;;;5074510;28;20370;-87
2020/12/22 12:20:09;;;;;;;;;;;13.00;99.90;;;;;;5075664;28;19908;-86
2020/12/22 12:22:35;;;;;;;;;;;12.90;99.90;;;;;;5074428;28;20390;-87
2020/12/22 12:25:01;;;;;;;;;;;12.90;99.90;;;;;;5074367;28;19916;-86
2020/12/22 12:27:26;;;;;;;;;;;12.90;99.90;;;;;;5074091;28;19909;-86
2020/12/22 12:29:52;;;;;;;;;;;12.80;99.90;;;;;;5074195;28;19913;-87
2020/12/22 12:32:17;;;;;;;;;;;12.80;99.90;;;;;;5074273;28;19909;-87
2020/12/22 12:34:43;;;;;;;;;;;12.80;99.90;;;;;;5074142;28;20248;-87
2020/12/22 12:37:08;;;;;;;;;;;12.90;99.90;;;;;;5073967;28;19916;-86
2020/12/22 12:39:34;;;;;;;;;;;12.90;99.90;;;;;;5074020;28;19909;-86
2020/12/22 12:41:59;;;;;;;;;;;12.90;99.90;;;;;;5074112;28;19909;-86
2020/12/22 12:44:25;;;;;;;;;;;12.80;99.90;;;;;;5065587;28;20015;-87
2020/12/22 12:46:51;;;;;;;;;;;12.80;99.90;;;;;;5073887;28;20354;-86
2020/12/22 12:49:17;;;;;;;;;;;12.70;99.90;;;;;;5075068;28;19919;-87
2020/12/22 12:51:43;;;;;;;;;;;12.70;99.90;;;;;;5073838;28;19909;-87
2020/12/22 12:54:09;;;;;;;;;;;12.60;99.90;;;;;;5073885;28;19919;-87
2020/12/22 12:56:35;;;;;;;;;;;12.70;99.90;;;;;;5073529;28;19908;-86
2020/12/22 12:59:00;;;;;;;;;;;12.60;99.90;;;;;;5073796;28;19968;-86
2020/12/22 13:01:27;;;;;;;;;;;12.50;99.90;;;;;;5073613;28;19909;-87
2020/12/22 13:03:52;;;;;;;;;;;12.60;99.90;;;;;;5075002;28;19916;-87
2020/12/22 13:06:18;;;;;;;;;;;12.60;99.90;;;;;;5067784;28;19916;-86
2020/12/22 13:08:43;;;;;;;;;;;12.60;99.90;;;;;;5053573;28;19968;-87
2020/12/22 13:11:09;;;;;;;;;;;12.50;99.90;;;;;;5053010;28;19935;-87
2020/12/22 13:13:34;;;;;;;;;;;12.50;99.90;;;;;;5061387;28;19909;-87
2020/12/22 13:16:00;;;;;;;;;;;12.40;99.90;;;;;;5053242;28;19909;-87
2020/12/22 13:18:25;;;;;;;;;;;12.40;99.90;;;;;;5053556;28;19948;-87
2020/12/22 13:20:51;;;;;;;;;;;12.40;99.90;;;;;;5053228;28;19913;-87
2020/12/22 13:23:16;;;;;;;;;;;12.40;99.90;;;;;;5054552;28;19954;-88
2020/12/22 13:25:42;;;;;;;;;;;12.30;99.90;;;;;;5053382;28;20325;-87
2020/12/22 13:28:07;;;;;;;;;;;12.30;99.90;;;;;;5053168;28;19909;-90
2020/12/22 13:30:33;;;;;;;;;;;12.30;99.90;;;;;;5053152;28;19936;-90
2020/12/22 13:32:59;;;;;;;;;;;12.20;99.90;;;;;;5053250;28;19912;-90
2020/12/22 13:35:25;;;;;;;;;;;12.20;99.90;;;;;;5053192;28;19909;-90
2020/12/22 13:37:50;;;;;;;;;;;12.20;99.90;;;;;;5053103;28;20023;-90
2020/12/22 13:40:16;;;;;;;;;;;12.20;99.90;;;;;;5053047;28;20034;-89
2020/12/22 13:42:41;;;;;;;;;;;12.20;99.90;;;;;;5064156;28;19913;-89
2020/12/22 13:45:07;;;;;;;;;;;12.10;99.90;;;;;;5072056;28;19939;-90
2020/12/22 13:47:32;;;;;;;;;;;12.10;99.90;;;;;;5071859;28;19908;-90
2020/12/22 13:49:58;;;;;;;;;;;12.10;99.90;;;;;;5072001;28;19916;-89
2020/12/22 13:52:23;;;;;;;;;;;12.10;99.90;;;;;;5072800;28;20282;-90
2020/12/22 13:54:48;;;;;;;;;;;12.10;99.90;;;;;;5072570;28;19912;-90
2020/12/22 13:57:14;;;;;;;;;;;12.10;99.90;;;;;;5072696;28;20010;-89
2020/12/22 13:59:39;;;;;;;;;;;12.10;99.90;;;;;;5072595;28;19908;-90
2020/12/22 14:02:05;;;;;;;;;;;12.10;99.90;;;;;;5073820;28;19951;-90
2020/12/22 14:04:30;;;;;;;;;;;12.10;99.90;;;;;;5072936;28;20374;-90
2020/12/22 14:06:56;;;;;;;;;;;12.10;99.90;;;;;;5072932;28;20313;-90
2020/12/22 14:09:21;;;;;;;;;;;12.10;99.90;;;;;;5072746;28;20022;-90
2020/12/22 14:11:50;;;;;;;;;;;12.10;99.90;;;;;;5072861;28;20393;-90
2020/12/22 14:14:16;;;;;;;;;;;12.10;99.90;;;;;;5064102;28;20030;-89